Time;durP1;ratioP1;P1;durP2;ratioP2;P2;SDS_P1;SDS_P2;PMS_P1;PMS_P2;Temp;Humidity;BMP_temperature;BMP_pressure;BME280_temperature;BME280_humidity;BME280_pressure;Samples;Min_cycle;Max_cycle;Signal;HPM_P1;HPM_P2
2024/03/28 00:00:34;;;;;;;0.00;0.00;;;;;;;10.73;100.00;93642.94;10342830;28;20351;-81
2024/03/28 00:05:34;;;;;;;0.00;0.00;;;;;;;10.83;100.00;93627.66;10340959;28;20034;-79
2024/03/28 00:10:36;;;;;;;0.00;0.00;;;;;;;10.86;100.00;93616.34;10358464;28;20046;-80
2024/03/28 00:15:36;;;;;;;0.00;0.00;;;;;;;10.93;100.00;93614.81;10345817;28;20110;-81
2024/03/28 00:20:37;;;;;;;0.00;0.00;;;;;;;11.09;100.00;93598.34;10354818;28;20407;-77
2024/03/28 00:25:39;;;;;;;0.00;0.00;;;;;;;11.08;100.00;93616.38;10356104;28;20029;-81
2024/03/28 00:30:40;;;;;;;0.00;0.00;;;;;;;11.29;100.00;93605.16;10392956;28;20551;-71
2024/03/28 00:35:42;;;;;;;0.00;0.00;;;;;;;11.39;100.00;93606.78;10368346;28;20029;-75
2024/03/28 00:40:54;;;;;;;0.00;0.00;;;;;;;11.59;100.00;93587.44;10348612;28;20296;-77
2024/03/28 00:45:56;;;;;;;0.00;0.00;;;;;;;11.68;100.00;93605.53;10364623;28;20064;-78
2024/03/28 00:50:59;;;;;;;0.00;0.00;;;;;;;11.76;100.00;93594.84;10347153;28;20026;-83
2024/03/28 00:55:59;;;;;;;0.00;0.00;;;;;;;11.86;100.00;93598.34;10359274;28;20038;-79
2024/03/28 01:01:03;;;;;;;0.00;0.00;;;;;;;11.89;100.00;93600.44;10370489;28;20030;-75
2024/03/28 01:06:03;;;;;;;0.00;0.00;;;;;;;11.96;100.00;93627.75;10357949;28;20293;-78
2024/03/28 01:11:06;;;;;;;0.00;0.00;;;;;;;11.92;100.00;93597.94;10355794;28;20042;-74
2024/03/28 01:16:07;;;;;;;0.00;0.00;;;;;;;11.92;100.00;93573.69;10334507;28;20074;-78
2024/03/28 01:21:07;;;;;;;0.00;0.00;;;;;;;11.91;100.00;93601.72;10354034;28;20113;-76
2024/03/28 01:26:07;;;;;;;0.00;0.00;;;;;;;11.82;100.00;93616.22;10357684;28;20552;-77
2024/03/28 01:31:08;;;;;;;0.00;0.00;;;;;;;11.68;100.00;93624.38;10339566;28;20901;-78
2024/03/28 01:36:09;;;;;;;0.00;0.00;;;;;;;11.68;100.00;93632.47;10357426;28;20037;-80
2024/03/28 01:41:10;;;;;;;0.00;0.00;;;;;;;11.76;100.00;93591.34;10339527;28;20285;-77
2024/03/28 01:46:13;;;;;;;0.00;0.00;;;;;;;11.59;100.00;93520.16;10356780;28;20034;-79
2024/03/28 01:51:15;;;;;;;0.00;0.00;;;;;;;11.50;100.00;93480.88;10356699;28;20296;-80
2024/03/28 01:56:19;;;;;;;0.00;0.00;;;;;;;11.32;100.00;93431.59;10356876;28;20060;-82
2024/03/28 02:01:20;;;;;;;0.00;0.00;;;;;;;11.21;100.00;93452.59;10355519;28;20460;-79
2024/03/28 02:06:21;;;;;;;0.00;0.00;;;;;;;11.21;100.00;93447.22;10356731;28;20341;-78
2024/03/28 02:11:22;;;;;;;0.00;0.00;;;;;;;11.31;100.00;93455.00;10333163;28;20252;-75
2024/03/28 02:16:22;;;;;;;0.00;0.00;;;;;;;10.92;100.00;93472.66;10355051;28;20428;-74
2024/03/28 02:21:23;;;;;;;0.00;0.00;;;;;;;11.02;100.00;93450.88;10354335;28;20034;-74
2024/03/28 02:26:24;;;;;;;0.00;0.00;;;;;;;10.77;100.00;93458.50;10360975;28;20038;-82
2024/03/28 02:31:24;;;;;;;0.00;0.00;;;;;;;10.77;100.00;93460.34;10364752;28;20383;-80
2024/03/28 02:36:25;;;;;;;0.00;0.00;;;;;;;10.66;100.00;93467.88;10378441;28;20097;-74
2024/03/28 02:41:25;;;;;;;0.00;0.00;;;;;;;10.54;100.00;93451.50;10371918;28;20477;-74
2024/03/28 02:46:26;;;;;;;0.00;0.00;;;;;;;10.40;100.00;93455.03;10374425;28;20034;-73
2024/03/28 02:51:26;;;;;;;0.00;0.00;;;;;;;10.53;100.00;93460.66;10379328;28;20044;-75
2024/03/28 02:56:26;;;;;;;0.00;0.00;;;;;;;10.60;100.00;93450.28;10375405;28;20312;-72
2024/03/28 03:01:27;;;;;;;0.00;0.00;;;;;;;10.58;100.00;93436.38;10389003;28;20044;-71
2024/03/28 03:06:28;;;;;;;0.00;0.00;;;;;;;10.42;100.00;93443.97;10394640;28;20318;-71
2024/03/28 03:11:28;;;;;;;0.00;0.00;;;;;;;10.48;100.00;93439.28;10382524;28;20042;-75
2024/03/28 03:16:30;;;;;;;0.00;0.00;;;;;;;10.50;100.00;93435.19;10357368;28;20409;-76
2024/03/28 03:21:31;;;;;;;0.00;0.00;;;;;;;10.43;100.00;93442.88;10330637;28;20047;-80
2024/03/28 03:26:31;;;;;;;0.00;0.00;;;;;;;10.40;100.00;93449.66;10354738;28;20412;-77
2024/03/28 03:36:53;;;;;;;0.00;0.00;;;;;;;10.54;100.00;93433.50;10343122;28;20395;-81
2024/03/28 03:41:56;;;;;;;0.00;0.00;;;;;;;10.70;100.00;93455.44;10347454;28;20026;-81
2024/03/28 03:46:56;;;;;;;0.00;0.00;;;;;;;10.94;100.00;93465.88;10354753;28;20033;-74
2024/03/28 03:51:57;;;;;;;0.00;0.00;;;;;;;11.22;100.00;93489.91;10414761;23;20089;-76
2024/03/28 03:56:57;;;;;;;0.00;0.00;;;;;;;11.39;100.00;93491.91;10410464;28;20029;-78
2024/03/28 04:01:57;;;;;;;0.00;0.00;;;;;;;11.34;100.00;93504.69;10409479;28;20413;-75
2024/03/28 04:06:58;;;;;;;0.00;0.00;;;;;;;11.25;100.00;93480.44;10393908;28;20284;-77
2024/03/28 04:11:59;;;;;;;0.00;0.00;;;;;;;11.13;100.00;93504.41;10409538;28;20021;-76
2024/03/28 04:17:00;;;;;;;0.00;0.00;;;;;;;10.93;100.00;93519.94;10407368;28;20428;-77
2024/03/28 04:22:00;;;;;;;0.00;0.00;;;;;;;10.78;100.00;93515.72;10441452;23;20130;-76
2024/03/28 04:27:01;;;;;;;0.00;0.00;;;;;;;10.66;100.00;93539.63;10400857;28;20138;-78
2024/03/28 04:32:02;;;;;;;0.00;0.00;;;;;;;10.65;100.00;93557.66;10420438;28;20022;-77
2024/03/28 04:37:03;;;;;;;0.00;0.00;;;;;;;10.69;100.00;93563.19;10447485;28;20123;-78
2024/03/28 04:42:04;;;;;;;0.00;0.00;;;;;;;10.67;100.00;93558.13;10447130;28;20108;-79
2024/03/28 04:47:04;;;;;;;0.00;0.00;;;;;;;10.73;100.00;93556.94;10439323;28;20514;-79
2024/03/28 04:52:05;;;;;;;0.00;0.00;;;;;;;10.81;100.00;93557.31;10425889;28;20419;-75
2024/03/28 04:57:05;;;;;;;0.00;0.00;;;;;;;10.88;100.00;93584.56;10422060;28;20777;-78
2024/03/28 05:02:05;;;;;;;0.00;0.00;;;;;;;11.03;100.00;93564.59;10432885;28;20098;-80
2024/03/28 05:07:06;;;;;;;0.00;0.00;;;;;;;11.23;100.00;93576.75;10424474;28;20388;-75
2024/03/28 05:12:07;;;;;;;0.00;0.00;;;;;;;11.44;100.00;93602.09;10427461;28;20032;-77
2024/03/28 05:17:08;;;;;;;0.00;0.00;;;;;;;11.73;100.00;93603.50;10437586;28;20037;-75
2024/03/28 05:22:09;;;;;;;0.00;0.00;;;;;;;11.84;100.00;93630.97;10419312;28;20098;-75
2024/03/28 05:27:12;;;;;;;0.00;0.00;;;;;;;11.94;100.00;93652.31;10420673;28;20290;-78
2024/03/28 05:32:12;;;;;;;0.00;0.00;;;;;;;12.01;100.00;93651.84;10461242;28;20033;-80
2024/03/28 05:37:12;;;;;;;0.00;0.00;;;;;;;12.00;100.00;93695.25;10433056;28;20037;-80
2024/03/28 05:42:14;;;;;;;0.00;0.00;;;;;;;12.00;100.00;93666.44;10454790;28;20036;-81
2024/03/28 05:47:14;;;;;;;0.00;0.00;;;;;;;11.82;100.00;93723.91;10426466;28;20267;-76
2024/03/28 05:52:15;;;;;;;0.00;0.00;;;;;;;11.99;100.00;93717.88;10434847;28;20025;-75
2024/03/28 05:57:15;;;;;;;0.00;0.00;;;;;;;12.23;100.00;93756.06;10437307;28;20264;-79
2024/03/28 06:02:15;;;;;;;0.00;0.00;;;;;;;12.45;100.00;93746.38;10427322;28;20445;-81
2024/03/28 06:07:16;;;;;;;0.00;0.00;;;;;;;12.54;100.00;93809.19;10436912;28;20072;-79
2024/03/28 06:12:16;;;;;;;0.00;0.00;;;;;;;12.56;100.00;93816.97;10433064;28;20589;-77
2024/03/28 06:17:16;;;;;;;0.00;0.00;;;;;;;12.45;100.00;93784.88;10420255;28;20271;-78
2024/03/28 06:22:20;;;;;;;0.00;0.00;;;;;;;12.43;100.00;93850.97;10439760;28;20053;-78
2024/03/28 06:27:20;;;;;;;0.00;0.00;;;;;;;12.35;100.00;93840.91;10436857;28;20279;-76
2024/03/28 06:32:29;;;;;;;0.00;0.00;;;;;;;12.09;100.00;93828.84;10436154;28;20030;-81
2024/03/28 06:37:31;;;;;;;0.00;0.00;;;;;;;12.02;100.00;93835.78;10433402;28;20786;-82
2024/03/28 06:42:32;;;;;;;0.00;0.00;;;;;;;12.04;100.00;93833.56;10455885;28;20114;-75
2024/03/28 06:47:32;;;;;;;0.00;0.00;;;;;;;12.14;100.00;93844.13;10425043;28;20094;-74
2024/03/28 06:52:32;;;;;;;0.00;0.00;;;;;;;11.96;100.00;93854.72;10442695;28;20347;-79
2024/03/28 06:57:33;;;;;;;0.00;0.00;;;;;;;12.10;100.00;93864.69;10425836;28;20021;-76
2024/03/28 07:02:35;;;;;;;0.00;0.00;;;;;;;12.29;100.00;93872.56;10442554;28;20359;-79
2024/03/28 07:07:48;;;;;;;0.00;0.00;;;;;;;12.53;100.00;93847.22;10443689;28;20140;-83
2024/03/28 07:12:51;;;;;;;0.00;0.00;;;;;;;12.83;100.00;93902.31;10441731;28;20021;-79
2024/03/28 07:17:53;;;;;;;0.00;0.00;;;;;;;12.86;100.00;93933.25;10441584;28;20043;-79
2024/03/28 07:22:54;;;;;;;0.00;0.00;;;;;;;12.70;100.00;93981.34;10442064;28;20060;-76
2024/03/28 07:27:55;;;;;;;0.00;0.00;;;;;;;13.30;100.00;93985.59;10441750;28;20475;-75
2024/03/28 07:32:55;;;;;;;0.00;0.00;;;;;;;14.30;100.00;93986.16;10449342;28;20021;-75
2024/03/28 07:37:56;;;;;;;0.00;0.00;;;;;;;17.28;100.00;93988.69;10454595;28;20056;-74
2024/03/28 07:42:56;;;;;;;0.00;0.00;;;;;;;18.98;100.00;93988.72;10456957;28;20041;-79
2024/03/28 07:48:03;;;;;;;0.00;0.00;;;;;;;19.82;94.65;93996.09;10458209;28;20029;-79
2024/03/28 07:53:04;;;;;;;0.00;0.00;;;;;;;21.22;95.57;94000.53;10447204;28;20029;-80
2024/03/28 07:58:05;;;;;;;0.00;0.00;;;;;;;23.20;68.61;93988.22;10441355;28;20427;-80
2024/03/28 08:03:05;;;;;;;0.00;0.00;;;;;;;22.28;70.63;93994.66;10458371;28;20040;-81
2024/03/28 08:08:06;;;;;;;0.00;0.00;;;;;;;23.58;62.17;93985.53;10422327;28;20036;-75
2024/03/28 08:13:07;;;;;;;0.00;0.00;;;;;;;22.96;56.12;93989.47;10422716;28;20810;-77
2024/03/28 08:18:07;;;;;;;0.00;0.00;;;;;;;21.79;55.17;94003.59;10457265;28;20037;-79
2024/03/28 08:23:07;;;;;;;0.00;0.00;;;;;;;21.94;61.40;93994.50;10438496;28;20045;-85
2024/03/28 08:28:09;;;;;;;0.00;0.00;;;;;;;22.49;45.21;94007.16;10443065;28;20267;-77
2024/03/28 08:33:10;;;;;;;2.85;0.55;;;;;;;24.17;49.89;93987.75;10439595;28;20086;-79
2024/03/28 08:38:10;;;;;;;4.63;0.10;;;;;;;24.65;37.94;93973.25;10440398;28;20106;-79
2024/03/28 08:43:11;;;;;;;75.40;19.35;;;;;;;26.87;38.13;93961.25;10422335;28;20040;-75
2024/03/28 08:48:12;;;;;;;238.15;45.05;;;;;;;27.38;32.08;93947.34;10422735;28;20043;-81
2024/03/28 08:53:13;;;;;;;28.25;9.73;;;;;;;26.98;32.48;93950.22;10437244;28;20820;-77
2024/03/28 08:58:14;;;;;;;95.10;27.73;;;;;;;26.27;30.97;93952.63;10438992;28;20120;-75
2024/03/28 09:03:14;;;;;;;5.17;0.07;;;;;;;24.26;29.47;93960.75;10439251;28;20340;-80
2024/03/28 09:08:15;;;;;;;2.27;0.10;;;;;;;23.49;34.53;93960.38;10437705;28;20700;-74
2024/03/28 09:13:16;;;;;;;7.32;0.38;;;;;;;23.53;35.74;93948.28;10420834;28;20121;-76
2024/03/28 09:18:16;;;;;;;9.60;0.60;;;;;;;23.65;30.92;93949.97;10437282;28;20441;-75
2024/03/28 09:23:18;;;;;;;9.27;0.47;;;;;;;25.61;30.32;93961.16;10437146;28;20374;-78
2024/03/28 09:28:18;;;;;;;4.65;1.17;;;;;;;23.87;29.94;93970.19;10437530;28;20296;-79
2024/03/28 09:33:19;;;;;;;4.32;0.00;;;;;;;22.73;32.77;93978.59;10440611;28;20020;-78
2024/03/28 09:38:19;;;;;;;6.43;0.00;;;;;;;22.65;32.20;93980.41;10445237;28;20358;-74
2024/03/28 09:43:20;;;;;;;;;;;;;;;22.23;31.27;93986.78;10446202;28;20033;-76
2024/03/28 09:48:21;;;;;;;;;;;;;;;25.79;30.54;93960.41;10445609;28;20032;-78
2024/03/28 09:53:22;;;;;;;;;;;;;;;28.06;25.86;93962.78;10449551;28;20385;-79
2024/03/28 09:58:22;;;;;;;;;;;;;;;28.95;26.73;93974.34;10448993;28;19915;-75
2024/03/28 10:03:30;;;;;;;;;;;;;;;31.18;22.41;93967.72;10446184;28;19917;-75
2024/03/28 10:08:31;;;;;;;;;;;;;;;31.74;20.66;93969.03;10443263;28;20947;-80
2024/03/28 10:13:35;;;;;;;;;;;;;;;30.78;22.95;93979.47;10463677;28;19942;-84
2024/03/28 10:18:36;;;;;;;;;;;;;;;29.08;25.13;93975.41;10444260;28;19917;-75
2024/03/28 10:23:39;;;;;;;;;;;;;;;29.59;23.21;93985.94;10448168;28;20852;-79
2024/03/28 10:28:41;;;;;;;;;;;;;;;32.51;22.66;93978.03;10427444;28;19962;-76
2024/03/28 10:33:44;;;;;;;;;;;;;;;33.24;22.33;93969.50;10433491;28;20187;-76
2024/03/28 10:38:44;;;;;;;;;;;;;;;32.96;20.47;93960.66;10449545;28;19975;-76
2024/03/28 10:43:45;;;;;;;;;;;;;;;34.43;19.94;93960.50;10455489;28;19913;-77
2024/03/28 10:48:45;;;;;;;;;;;;;;;31.34;21.91;93959.47;10444397;28;19983;-78
2024/03/28 10:54:09;;;;;;;;;;;;;;;31.48;20.66;93969.53;10456754;28;19912;-77
2024/03/28 10:59:10;;;;;;;;;;;;;;;29.29;21.48;93981.91;10446367;28;19920;-79
2024/03/28 11:04:11;;;;;;;;;;;;;;;28.04;23.95;93974.25;10435272;28;19912;-80
2024/03/28 11:09:13;;;;;;;;;;;;;;;27.74;23.15;93978.34;10444175;28;19935;-76
2024/03/28 11:14:14;;;;;;;;;;;;;;;29.69;21.76;93973.16;10437648;28;20130;-78
2024/03/28 11:19:17;;;;;;;;;;;;;;;31.42;21.83;93954.56;10424818;28;19917;-75
2024/03/28 11:24:25;;;;;;;;;;;;;;;31.47;20.86;93964.41;10442155;28;19923;-80
2024/03/28 11:29:26;;;;;;;;;;;;;;;28.46;22.06;93983.41;10415452;28;20055;-81
2024/03/28 11:34:27;;;;;;;;;;;;;;;26.17;23.94;93974.69;10442160;28;19909;-83
2024/03/28 11:39:28;;;;;;;;;;;;;;;24.06;26.59;93987.66;10442067;28;19909;-78
2024/03/28 11:44:37;;;;;;;;;;;;;;;23.03;28.90;93992.28;10428002;28;21088;-83
2024/03/28 11:49:37;;;;;;;;;;;;;;;22.13;28.24;94003.81;10441605;28;20410;-73
2024/03/28 11:54:38;;;;;;;;;;;;;;;21.99;29.11;93999.69;10442752;28;19915;-82
2024/03/28 11:59:38;;;;;;;;;;;;;;;22.09;29.65;93990.06;10442797;28;19908;-76
2024/03/28 12:04:40;;;;;;;;;;;;;;;21.84;30.43;93986.91;10458787;28;19912;-75
2024/03/28 12:09:44;;;;;;;;;;;;;;;21.70;29.58;93975.69;10444127;28;20379;-84
2024/03/28 12:14:45;;;;;;;;;;;;;;;21.47;30.90;93976.41;10457163;28;19912;-81
2024/03/28 12:19:50;;;;;;;;;;;;;;;21.05;31.29;93985.34;10442245;28;20377;-84
2024/03/28 12:25:10;;;;;;;;;;;;;;;21.17;31.96;93982.47;10425639;28;19920;-82
2024/03/28 12:30:11;;;;;;;;;;;;;;;21.25;32.44;93977.94;10441430;28;19924;-76
2024/03/28 12:35:12;;;;;;;;;;;;;;;21.43;33.62;93981.00;10441106;28;19917;-77
2024/03/28 12:40:20;;;;;;;;;;;;;;;21.38;33.86;93992.22;10424697;28;19962;-85
2024/03/28 12:45:22;;;;;;;;;;;;;;;21.13;33.11;93995.28;10425290;28;19927;-82
2024/03/28 12:50:25;;;;;;;;;;;;;;;21.43;33.81;93991.94;10423533;28;20295;-82
2024/03/28 12:55:25;;;;;;;;;;;;;;;21.40;32.11;93990.72;10440079;28;19947;-79
2024/03/28 13:00:25;;;;;;;;;;;;;;;21.33;30.19;93993.31;10439851;28;20020;-83
2024/03/28 13:05:25;;;;;;;;;;;;;;;21.23;30.88;94000.16;10437944;28;19909;-84
2024/03/28 13:10:26;;;;;;;;;;;;;;;21.29;29.43;93996.00;10446551;28;20280;-81
2024/03/28 13:15:26;;;;;;;;;;;;;;;21.35;30.23;94007.44;10441501;28;20003;-78
2024/03/28 13:20:27;;;;;;;;;;;;;;;21.17;29.04;94004.34;10422446;28;19947;-80
2024/03/28 13:25:28;;;;;;;;;;;;;;;21.07;28.79;94007.63;10439499;28;20404;-75
2024/03/28 13:30:29;;;;;;;;;;;;;;;20.89;29.85;93999.03;10436245;28;19923;-81
2024/03/28 13:35:29;;;;;;;;;;;;;;;20.96;28.62;93991.78;10437689;28;19916;-76
2024/03/28 13:40:30;;;;;;;;;;;;;;;20.84;28.26;93997.38;10438195;28;19995;-77
2024/03/28 13:45:30;;;;;;;;;;;;;;;20.87;28.78;93999.41;10437496;28;19916;-84
2024/03/28 13:50:32;;;;;;;;;;;;;;;20.93;29.11;93997.97;10437736;28;19919;-81
2024/03/28 13:55:32;;;;;;;;;;;;;;;20.82;28.96;94007.88;10438731;28;19909;-74
2024/03/28 14:00:32;;;;;;;;;;;;;;;20.72;29.19;93990.13;10453569;28;19908;-80
2024/03/28 14:05:34;;;;;;;;;;;;;;;20.56;28.79;93987.38;10442791;28;19915;-80
2024/03/28 14:10:41;;;;;;;;;;;;;;;20.61;29.23;93984.38;10448314;28;19917;-76
2024/03/28 14:15:41;;;;;;;;;;;;;;;20.58;28.84;93987.81;10452730;28;19972;-77
2024/03/28 14:20:43;;;;;;;284.80;52.35;;;;;;;20.65;28.96;93989.91;10456601;28;21111;-77
2024/03/28 14:25:49;;;;;;;353.33;58.30;;;;;;;20.59;29.24;93985.88;10446255;28;20028;-74
2024/03/28 14:30:49;;;;;;;79.25;11.80;;;;;;;20.52;30.01;93982.97;10444062;28;20575;-80
2024/03/28 14:35:59;;;;;;;154.97;26.67;;;;;;;20.66;30.63;93986.81;10425509;28;20041;-77
2024/03/28 14:41:04;;;;;;;453.75;68.13;;;;;;;20.70;29.93;93994.34;10426096;28;20021;-78
2024/03/28 14:46:12;;;;;;;380.70;73.32;;;;;;;20.69;30.01;94012.66;10420567;28;20037;-85
2024/03/28 14:51:12;;;;;;;417.13;63.90;;;;;;;20.40;29.87;94017.44;10433786;28;20833;-83
2024/03/28 14:56:13;;;;;;;192.98;42.70;;;;;;;20.11;30.39;94021.41;10426578;28;20112;-79
2024/03/28 15:01:14;;;;;;;350.57;57.90;;;;;;;20.13;29.66;94025.34;10425013;28;20558;-82
2024/03/28 15:06:15;;;;;;;509.02;72.53;;;;;;;19.97;29.30;94027.28;10401412;28;20267;-81
2024/03/28 15:11:15;;;;;;;489.33;69.18;;;;;;;19.87;30.31;94020.41;10438530;28;20020;-82
2024/03/28 15:16:16;;;;;;;545.22;75.03;;;;;;;19.91;30.70;94021.28;10426459;28;20094;-82
2024/03/28 15:21:16;;;;;;;634.50;310.15;;;;;;;19.86;31.01;94024.25;10425935;28;20052;-81
2024/03/28 15:26:17;;;;;;;713.30;560.70;;;;;;;20.02;30.17;94032.44;10426350;28;20029;-82
2024/03/28 15:31:17;;;;;;;593.28;116.85;;;;;;;19.90;29.78;94025.16;10408886;28;20060;-82
2024/03/28 15:36:17;;;;;;;528.63;77.93;;;;;;;19.99;29.63;94038.63;10425554;28;20120;-83
2024/03/28 15:41:18;;;;;;;501.73;71.00;;;;;;;19.77;31.30;94040.75;10424462;28;20341;-79
2024/03/28 15:46:18;;;;;;;569.08;100.07;;;;;;;19.86;29.77;94048.03;10425060;28;20275;-83
2024/03/28 15:51:18;;;;;;;554.03;81.00;;;;;;;19.81;30.21;94051.78;10424449;28;20028;-86
2024/03/28 15:56:20;;;;;;;544.67;77.87;;;;;;;19.64;30.01;94059.09;10413665;28;20580;-86
2024/03/28 16:01:22;;;;;;;536.80;74.63;;;;;;;19.49;30.32;94076.19;10423327;28;20279;-78
2024/03/28 16:06:24;;;;;;;535.15;73.90;;;;;;;19.35;30.85;94081.22;10407772;28;20469;-85
2024/03/28 16:11:27;;;;;;;541.72;75.90;;;;;;;19.27;31.35;94089.22;10416147;28;20140;-79
2024/03/28 16:16:28;;;;;;;570.28;80.75;;;;;;;19.02;32.07;94093.09;10442024;28;20040;-84
2024/03/28 16:21:28;;;;;;;516.00;71.00;;;;;;;18.91;32.27;94100.97;10424092;28;20057;-85
2024/03/28 16:26:28;;;;;;;558.42;82.90;;;;;;;18.78;32.29;94100.94;10395003;28;20283;-82
2024/03/28 16:31:29;;;;;;;506.13;70.13;;;;;;;18.73;32.00;94103.09;10423277;28;20067;-79
2024/03/28 16:36:29;;;;;;;363.40;53.15;;;;;;;18.53;32.63;94099.31;10441454;28;20350;-82
2024/03/28 16:41:30;;;;;;;157.60;33.30;;;;;;;18.50;33.01;94108.94;10422400;28;20403;-76
2024/03/28 16:46:31;;;;;;;431.33;66.85;;;;;;;18.41;32.79;94103.63;10422112;28;20017;-79
2024/03/28 16:51:32;;;;;;;600.60;100.70;;;;;;;18.36;32.69;94112.00;10424675;28;20021;-77
2024/03/28 16:56:33;;;;;;;570.47;77.65;;;;;;;18.20;32.52;94120.03;10422089;28;20071;-80
2024/03/28 17:01:33;;;;;;;540.42;73.82;;;;;;;18.17;32.87;94119.88;10409058;28;20024;-77
2024/03/28 17:06:36;;;;;;;401.92;60.97;;;;;;;18.18;32.51;94125.03;10422570;28;20444;-83
2024/03/28 17:11:38;;;;;;;527.63;72.13;;;;;;;18.08;33.23;94133.59;10429972;28;20048;-80
2024/03/28 17:16:38;;;;;;;474.10;66.72;;;;;;;18.02;33.95;94141.16;10423666;28;20106;-83
2024/03/28 17:21:40;;;;;;;413.38;61.88;;;;;;;17.92;34.61;94145.09;10430474;28;20079;-81
2024/03/28 17:26:40;;;;;;;496.50;68.80;;;;;;;17.70;34.57;94161.72;10433751;28;20125;-79
2024/03/28 17:31:40;;;;;;;607.75;108.07;;;;;;;17.56;34.99;94168.22;10422784;28;20028;-80
2024/03/28 17:36:44;;;;;;;269.40;48.20;;;;;;;17.28;36.90;94192.38;10430149;28;20091;-72
2024/03/28 17:41:47;;;;;;;310.40;52.53;;;;;;;16.89;36.17;94213.34;10455037;28;20294;-77
2024/03/28 17:46:47;;;;;;;290.10;50.65;;;;;;;16.92;36.79;94208.03;10433526;28;20029;-78
2024/03/28 17:51:49;;;;;;;300.97;51.23;;;;;;;16.97;36.50;94228.00;10420916;28;20041;-76
2024/03/28 17:56:49;;;;;;;365.52;56.60;;;;;;;16.90;37.64;94233.94;10422769;28;20307;-76
2024/03/28 18:01:50;;;;;;;59.43;18.87;;;;;;;16.52;39.07;94235.47;10423436;28;20116;-76
2024/03/28 18:06:53;;;;;;;101.50;32.87;;;;;;;16.27;39.02;94258.00;10427604;28;20341;-80
2024/03/28 18:11:53;;;;;;;137.93;34.88;;;;;;;16.42;38.13;94249.34;10426137;28;20294;-78
2024/03/28 18:16:54;;;;;;;385.10;58.80;;;;;;;16.34;39.17;94256.41;10443748;28;20475;-74
2024/03/28 18:21:56;;;;;;;419.25;61.55;;;;;;;16.28;39.51;94263.09;10443151;28;20475;-77
2024/03/28 18:26:56;;;;;;;534.92;70.97;;;;;;;16.28;39.24;94246.03;10419691;28;20035;-76
2024/03/28 18:31:56;;;;;;;544.40;72.07;;;;;;;16.34;39.06;94253.69;10440971;28;20403;-81
2024/03/28 18:36:57;;;;;;;464.40;64.83;;;;;;;16.34;39.78;94261.00;10425243;28;20535;-78
2024/03/28 18:41:57;;;;;;;501.77;67.67;;;;;;;16.30;39.59;94255.44;10427251;28;20362;-74
2024/03/28 18:46:57;;;;;;;501.73;67.63;;;;;;;16.26;40.71;94259.91;10445728;28;20271;-77
2024/03/28 18:51:58;;;;;;;293.02;50.55;;;;;;;16.15;40.34;94264.09;10424557;28;20280;-75
2024/03/28 18:56:58;;;;;;;365.37;56.87;;;;;;;15.98;43.09;94276.50;10423188;28;20383;-77
2024/03/28 19:01:59;;;;;;;429.98;61.72;;;;;;;15.92;40.66;94274.28;10421763;28;20769;-78
2024/03/28 19:06:59;;;;;;;345.10;55.20;;;;;;;15.91;41.35;94284.31;10407789;28;20036;-81
2024/03/28 19:11:59;;;;;;;415.07;59.70;;;;;;;15.87;40.78;94291.50;10422992;28;20880;-76
2024/03/28 19:16:59;;;;;;;314.90;52.70;;;;;;;15.82;40.94;94297.88;10439988;28;20777;-76
2024/03/28 19:22:03;;;;;;;116.87;34.53;;;;;;;15.88;40.58;94295.81;10406300;28;20851;-76
2024/03/28 19:27:03;;;;;;;103.05;33.38;;;;;;;15.84;40.80;94297.56;10439736;28;20625;-74
2024/03/28 19:32:05;;;;;;;68.78;28.60;;;;;;;15.78;42.45;94301.47;10423597;28;20031;-81
2024/03/28 19:37:05;;;;;;;100.53;32.55;;;;;;;15.73;42.83;94291.59;10419199;28;20532;-74
2024/03/28 19:42:06;;;;;;;58.30;25.60;;;;;;;15.53;44.07;94320.06;10439006;28;20025;-75
2024/03/28 19:47:06;;;;;;;65.15;27.50;;;;;;;15.32;44.40;94325.25;10421240;28;20032;-77
2024/03/28 19:52:07;;;;;;;43.50;23.37;;;;;;;15.31;44.51;94327.19;10443720;28;20498;-83
2024/03/28 19:57:07;;;;;;;81.85;30.65;;;;;;;15.26;43.07;94321.09;10406067;28;20298;-81
2024/03/28 20:02:10;;;;;;;67.88;28.40;;;;;;;15.23;45.72;94325.22;10403367;28;20029;-82
2024/03/28 20:07:10;;;;;;;44.78;21.23;;;;;;;15.07;45.73;94324.88;10425567;28;20068;-75
2024/03/28 20:12:11;;;;;;;29.87;13.17;;;;;;;15.03;44.21;94324.69;10448214;28;20678;-80
2024/03/28 20:17:11;;;;;;;6.55;3.00;;;;;;;15.07;44.90;94343.00;10405882;28;20350;-78
2024/03/28 20:22:12;;;;;;;6.90;5.68;;;;;;;15.02;45.09;94354.75;10426179;28;20037;-83
2024/03/28 20:27:12;;;;;;;1.75;1.45;;;;;;;15.08;44.95;94344.59;10419861;28;20443;-76
2024/03/28 20:32:17;;;;;;;52.90;17.35;;;;;;;15.13;44.15;94345.25;10394006;28;20395;-76
2024/03/28 20:37:19;;;;;;;129.38;34.13;;;;;;;15.06;46.28;94354.91;10437128;28;20025;-84
2024/03/28 20:42:19;;;;;;;67.03;25.15;;;;;;;15.05;46.41;94348.72;10437261;28;20045;-79
2024/03/28 20:47:25;;;;;;;62.15;24.98;;;;;;;14.85;46.99;94345.44;10438338;28;20035;-75
2024/03/28 20:52:25;;;;;;;77.40;24.20;;;;;;;14.81;49.34;94362.59;10419967;28;20438;-76
2024/03/28 20:57:26;;;;;;;50.87;13.63;;;;;;;14.74;48.91;94370.34;10415547;28;20452;-77
2024/03/28 21:02:27;;;;;;;495.80;66.85;;;;;;;14.66;49.06;94374.59;10436764;28;20378;-76
2024/03/28 21:12:48;;;;;;;429.10;61.03;;;;;;;14.57;47.85;94376.38;10437735;28;20860;-79
2024/03/28 21:17:50;;;;;;;240.90;42.83;;;;;;;14.55;48.00;94392.13;10436774;28;20662;-79
2024/03/28 21:22:50;;;;;;;502.67;67.75;;;;;;;14.51;49.26;94410.88;10370995;28;20164;-77
2024/03/28 21:27:51;;;;;;;558.47;72.17;;;;;;;14.37;49.63;94402.78;10369130;28;20036;-78
2024/03/28 21:32:51;;;;;;;535.60;69.13;;;;;;;14.41;50.54;94417.31;10384551;28;20029;-80
2024/03/28 21:37:51;;;;;;;445.52;62.25;;;;;;;14.24;52.43;94409.06;10358153;28;20341;-75
2024/03/28 21:43:09;;;;;;;411.80;58.83;;;;;;;13.87;54.50;94392.81;10362551;28;20087;-78
2024/03/28 21:48:09;;;;;;;311.27;51.17;;;;;;;13.76;57.46;94435.44;10388448;28;20025;-75
2024/03/28 21:53:10;;;;;;;339.80;52.87;;;;;;;13.38;60.81;94446.41;10389902;28;20040;-80
2024/03/28 21:58:10;;;;;;;369.05;55.55;;;;;;;13.27;64.76;94444.94;10406203;28;20359;-83
2024/03/28 22:03:11;;;;;;;442.73;61.00;;;;;;;13.18;66.30;94442.13;10347407;28;20120;-76
2024/03/28 22:08:11;;;;;;;478.43;63.37;;;;;;;13.11;66.55;94442.50;10408220;28;20140;-86
2024/03/28 22:13:13;;;;;;;489.85;64.40;;;;;;;13.07;68.46;94465.78;10406254;28;20299;-85
2024/03/28 22:18:31;;;;;;;418.73;59.00;;;;;;;12.92;71.33;94487.63;10391004;28;20036;-79
2024/03/28 22:23:31;;;;;;;408.60;57.65;;;;;;;12.89;73.46;94475.50;10440904;28;20191;-81
2024/03/28 22:28:36;;;;;;;385.93;56.00;;;;;;;12.87;75.35;94493.09;10431468;28;20033;-73
2024/03/28 22:33:37;;;;;;;342.48;53.10;;;;;;;12.85;76.30;94489.88;10432725;28;20795;-77
2024/03/28 22:38:37;;;;;;;441.15;60.72;;;;;;;12.77;77.35;94485.97;10448718;28;20025;-80
2024/03/28 22:43:38;;;;;;;493.38;64.20;;;;;;;12.54;79.78;94498.44;10465114;28;20020;-72
2024/03/28 22:48:39;;;;;;;201.40;41.45;;;;;;;12.59;83.45;94484.88;10458402;28;20031;-73
2024/03/28 22:53:41;;;;;;;126.38;34.90;;;;;;;12.54;86.15;94491.13;10440477;28;20025;-77
2024/03/28 22:58:41;;;;;;;177.00;35.03;;;;;;;12.39;86.31;94492.16;10441427;28;20036;-74
2024/03/28 23:03:42;;;;;;;661.60;291.23;;;;;;;12.14;89.94;94486.00;10446302;28;20028;-73
2024/03/28 23:08:42;;;;;;;638.67;107.95;;;;;;;12.14;90.64;94490.59;10430229;28;20279;-77
2024/03/28 23:13:44;;;;;;;534.93;68.33;;;;;;;11.98;90.13;94489.19;10429313;28;20110;-84
2024/03/28 23:18:45;;;;;;;680.97;248.77;;;;;;;12.01;90.97;94502.84;10427497;28;20351;-74
2024/03/28 23:23:48;;;;;;;618.85;82.20;;;;;;;12.00;89.90;94503.16;10440813;28;20090;-82
2024/03/28 23:28:49;;;;;;;618.28;81.90;;;;;;;12.03;88.03;94500.69;10427928;28;20775;-79
2024/03/28 23:33:49;;;;;;;426.63;58.13;;;;;;;12.03;88.97;94503.41;10413897;28;20035;-79